createdAt,value
2023-03-06T00:00:50.863Z,6.35
2023-03-06T00:03:18.059Z,5.47
2023-03-06T00:05:45.243Z,5.70
2023-03-06T00:08:12.325Z,5.60
2023-03-06T00:10:40.387Z,5.20
2023-03-06T00:13:13.526Z,5.28
2023-03-06T00:15:41.231Z,4.78
2023-03-06T00:18:08.967Z,5.05
2023-03-06T00:20:37.902Z,5.10
2023-03-06T00:23:04.988Z,4.93
2023-03-06T00:25:31.957Z,4.70
2023-03-06T00:27:58.885Z,4.75
2023-03-06T00:30:28.170Z,4.72
2023-03-06T00:32:55.176Z,4.97
2023-03-06T00:35:23.910Z,4.78
2023-03-06T00:37:51.019Z,5.10
2023-03-06T00:40:20.903Z,5.22
2023-03-06T00:42:48.634Z,6.10
2023-03-06T00:45:15.988Z,5.63
2023-03-06T00:47:43.490Z,6.00
2023-03-06T00:50:11.384Z,5.93
2023-03-06T00:52:38.466Z,5.45
2023-03-06T00:55:06.251Z,5.85
2023-03-06T00:57:33.303Z,5.60
2023-03-06T01:00:00.269Z,5.60
2023-03-06T01:02:27.418Z,6.40
2023-03-06T01:04:55.098Z,6.43
2023-03-06T01:07:22.434Z,6.72
2023-03-06T01:09:50.707Z,7.20
2023-03-06T01:12:17.939Z,7.47
2023-03-06T01:14:47.964Z,7.75
2023-03-06T01:17:15.974Z,7.95
2023-03-06T01:19:43.510Z,8.52
2023-03-06T01:22:13.969Z,9.65
2023-03-06T01:24:40.933Z,9.10
2023-03-06T01:27:07.910Z,8.65
2023-03-06T01:29:36.032Z,9.77
2023-03-06T01:32:03.246Z,9.50
2023-03-06T01:34:30.314Z,9.98
2023-03-06T01:36:57.451Z,9.85
2023-03-06T01:39:24.996Z,10.00
2023-03-06T01:41:52.385Z,10.13
2023-03-06T01:44:19.416Z,10.25
2023-03-06T01:46:47.452Z,10.90
2023-03-06T01:49:35.550Z,10.48
2023-03-06T01:52:08.881Z,10.23
2023-03-06T01:55:09.924Z,11.18
2023-03-06T01:57:44.534Z,10.73
2023-03-06T02:00:17.689Z,10.25
2023-03-06T02:02:53.106Z,9.13
2023-03-06T02:05:20.628Z,8.07
2023-03-06T02:07:50.129Z,8.25
2023-03-06T02:10:20.157Z,7.88
2023-03-06T02:12:51.108Z,8.18
2023-03-06T02:15:23.213Z,7.90
2023-03-06T02:17:53.058Z,7.13
2023-03-06T02:20:33.988Z,7.53
2023-03-06T02:23:27.099Z,7.25
2023-03-06T02:25:57.226Z,6.88
2023-03-06T02:28:25.372Z,7.07
2023-03-06T02:30:55.246Z,6.43
2023-03-06T02:33:28.049Z,6.22
2023-03-06T02:36:04.121Z,5.88
2023-03-06T02:38:52.427Z,6.43
2023-03-06T02:41:20.722Z,6.63
2023-03-06T02:43:52.205Z,6.45
2023-03-06T02:46:19.323Z,6.78
2023-03-06T02:48:46.753Z,6.43
2023-03-06T02:51:13.767Z,7.03
2023-03-06T02:53:40.915Z,7.45
2023-03-06T02:56:08.492Z,7.15
2023-03-06T02:58:35.830Z,7.40
2023-03-06T03:01:02.905Z,7.57
2023-03-06T03:03:30.783Z,7.05
2023-03-06T03:06:00.249Z,7.22
2023-03-06T03:08:32.880Z,8.60
2023-03-06T03:11:03.849Z,7.72
2023-03-06T03:13:38.257Z,8.90
2023-03-06T03:16:11.716Z,8.93
2023-03-06T03:18:38.806Z,8.57
2023-03-06T03:21:12.438Z,9.50
2023-03-06T03:23:39.865Z,9.60
2023-03-06T03:26:10.764Z,9.65
2023-03-06T03:28:40.629Z,9.77
2023-03-06T03:31:10.497Z,10.63
2023-03-06T03:33:38.087Z,10.27
2023-03-06T03:36:07.208Z,10.02
2023-03-06T03:38:36.846Z,10.10
2023-03-06T03:41:04.725Z,10.48
2023-03-06T03:43:32.573Z,10.23
2023-03-06T03:46:00.457Z,10.52
2023-03-06T03:48:28.553Z,11.10
2023-03-06T03:51:05.996Z,10.52
2023-03-06T03:53:35.255Z,9.82
2023-03-06T03:56:03.802Z,10.73
2023-03-06T03:58:32.746Z,10.13
2023-03-06T04:01:00.129Z,10.48
2023-03-06T04:03:27.841Z,10.40
2023-03-06T04:05:57.841Z,11.20
2023-03-06T04:08:26.870Z,10.60
2023-03-06T04:10:54.581Z,10.73
2023-03-06T04:13:24.222Z,11.65
2023-03-06T04:15:53.933Z,10.85
2023-03-06T04:18:24.033Z,11.20
2023-03-06T04:20:53.562Z,11.32
2023-03-06T04:23:21.139Z,10.70
2023-03-06T04:25:48.530Z,10.85
2023-03-06T04:28:16.867Z,11.73
2023-03-06T04:30:44.756Z,11.73
2023-03-06T04:33:12.611Z,11.90
2023-03-06T04:35:39.661Z,12.07
2023-03-06T04:38:12.525Z,11.88
2023-03-06T04:40:39.897Z,11.23
2023-03-06T04:43:07.053Z,11.02
2023-03-06T04:45:34.887Z,12.27
2023-03-06T04:48:02.035Z,11.32
2023-03-06T04:50:32.546Z,11.18
2023-03-06T04:53:01.613Z,11.25
2023-03-06T04:55:29.148Z,11.05
2023-03-06T04:57:57.689Z,11.02
2023-03-06T05:00:33.150Z,10.07
2023-03-06T05:03:02.339Z,10.90
2023-03-06T05:05:30.175Z,10.20
2023-03-06T05:07:57.596Z,10.07
2023-03-06T05:10:24.623Z,10.55
2023-03-06T05:12:51.590Z,10.00
2023-03-06T05:15:18.888Z,9.63
2023-03-06T05:17:47.519Z,10.13
2023-03-06T05:20:16.354Z,11.05
2023-03-06T05:22:44.111Z,10.27
2023-03-06T05:25:11.753Z,9.50
2023-03-06T05:27:39.423Z,9.23
2023-03-06T05:30:09.861Z,9.65
2023-03-06T05:32:36.880Z,9.02
2023-03-06T05:35:05.945Z,10.00
2023-03-06T05:37:33.680Z,9.30
2023-03-06T05:40:00.760Z,9.23
2023-03-06T05:42:31.019Z,9.18
2023-03-06T05:44:57.958Z,9.77
2023-03-06T05:47:25.108Z,10.23
2023-03-06T05:49:52.067Z,9.25
2023-03-06T05:52:19.091Z,9.95
2023-03-06T05:54:51.347Z,9.75
2023-03-06T05:57:23.952Z,10.15
2023-03-06T05:59:51.571Z,9.45
2023-03-06T06:02:19.499Z,9.88
2023-03-06T06:04:47.050Z,9.65
2023-03-06T06:07:16.862Z,9.75
2023-03-06T06:09:45.581Z,9.80
2023-03-06T06:12:13.608Z,9.45
2023-03-06T06:14:42.971Z,9.85
2023-03-06T06:17:10.378Z,10.20
2023-03-06T06:19:37.397Z,10.38
2023-03-06T06:22:05.297Z,10.48
2023-03-06T06:24:32.785Z,10.77
2023-03-06T06:27:03.609Z,9.65
2023-03-06T06:29:32.103Z,10.93
2023-03-06T06:32:00.269Z,11.13
2023-03-06T06:34:28.450Z,11.60
2023-03-06T06:36:55.973Z,11.77
2023-03-06T06:39:24.629Z,12.00
2023-03-06T06:42:06.370Z,11.75
2023-03-06T06:44:39.937Z,12.43
2023-03-06T06:47:24.903Z,12.57
2023-03-06T06:49:55.231Z,12.02
2023-03-06T06:52:24.658Z,13.10
2023-03-06T06:54:52.833Z,12.30
2023-03-06T06:57:19.829Z,13.95
2023-03-06T06:59:46.834Z,13.35
2023-03-06T07:02:15.950Z,14.00
2023-03-06T07:05:00.650Z,13.65
2023-03-06T07:07:34.442Z,14.77
2023-03-06T07:10:01.596Z,14.48
2023-03-06T07:12:28.582Z,14.35
2023-03-06T07:14:55.619Z,14.05
2023-03-06T07:17:22.645Z,15.07
2023-03-06T07:19:50.195Z,15.35
2023-03-06T07:22:17.138Z,13.68
2023-03-06T07:24:45.342Z,14.38
2023-03-06T07:27:12.398Z,15.45
2023-03-06T07:29:39.658Z,16.13
2023-03-06T07:32:06.979Z,15.70
2023-03-06T07:34:34.032Z,15.68
2023-03-06T07:37:01.126Z,15.07
2023-03-06T07:39:30.052Z,14.93
2023-03-06T07:41:58.578Z,14.85
2023-03-06T07:44:25.634Z,14.00
2023-03-06T07:46:52.726Z,14.63
2023-03-06T07:49:19.792Z,15.18
2023-03-06T07:51:46.853Z,12.88
2023-03-06T07:54:13.816Z,13.75
2023-03-06T07:56:40.887Z,13.20
2023-03-06T07:59:07.889Z,12.68
2023-03-06T08:01:36.447Z,13.68
2023-03-06T08:04:03.709Z,12.45
2023-03-06T08:06:32.403Z,12.20
2023-03-06T08:08:59.810Z,13.60
2023-03-06T08:11:30.037Z,13.02
2023-03-06T08:13:58.450Z,11.70
2023-03-06T08:16:29.908Z,13.68
2023-03-06T08:18:58.166Z,12.35
2023-03-06T08:21:28.192Z,12.10
2023-03-06T08:23:56.148Z,12.07
2023-03-06T08:26:27.245Z,11.25
2023-03-06T08:28:57.529Z,11.07
2023-03-06T08:31:35.120Z,11.35
2023-03-06T08:34:07.429Z,12.10
2023-03-06T08:36:34.631Z,10.95
2023-03-06T08:39:01.811Z,11.10
2023-03-06T08:41:28.982Z,10.07
2023-03-06T08:43:56.861Z,10.23
2023-03-06T08:46:27.231Z,10.13
2023-03-06T08:48:54.479Z,9.95
2023-03-06T08:51:22.563Z,9.43
2023-03-06T08:53:51.245Z,8.98
2023-03-06T08:56:29.537Z,9.43
2023-03-06T08:58:59.759Z,7.63
2023-03-06T09:01:31.847Z,7.88
2023-03-06T09:04:02.656Z,8.05
2023-03-06T09:06:34.808Z,7.43
2023-03-06T09:09:02.805Z,8.57
2023-03-06T09:11:30.692Z,8.98
2023-03-06T09:13:58.479Z,7.82
2023-03-06T09:16:25.958Z,7.28
2023-03-06T09:18:54.041Z,7.00
2023-03-06T09:21:23.178Z,7.70
2023-03-06T09:23:50.755Z,6.60
2023-03-06T09:26:18.660Z,8.30
2023-03-06T09:28:46.735Z,8.30
2023-03-06T09:31:19.611Z,7.00
2023-03-06T09:33:48.590Z,4.95
2023-03-06T09:36:24.804Z,4.05
2023-03-06T09:38:51.792Z,3.83
2023-03-06T09:41:30.412Z,4.65
2023-03-06T09:44:06.074Z,3.00
2023-03-06T09:47:19.632Z,3.30
2023-03-06T09:50:10.328Z,3.70
2023-03-06T09:52:52.501Z,3.30
2023-03-06T09:55:27.066Z,2.83
2023-03-06T09:58:11.091Z,2.78
2023-03-06T10:01:12.815Z,2.40
2023-03-06T10:03:45.447Z,2.60
2023-03-06T10:06:25.105Z,2.15
2023-03-06T10:09:13.298Z,1.50
2023-03-06T10:12:02.107Z,1.27
2023-03-06T10:14:47.730Z,1.23
2023-03-06T10:17:23.751Z,1.42
2023-03-06T10:19:51.490Z,2.20
2023-03-06T10:22:33.004Z,2.38
2023-03-06T10:25:27.878Z,1.42
2023-03-06T10:28:29.447Z,1.60
2023-03-06T10:31:05.564Z,1.55
2023-03-06T10:33:49.709Z,1.60
2023-03-06T10:36:19.732Z,1.38
2023-03-06T10:38:48.682Z,1.45
2023-03-06T10:41:31.964Z,2.00
2023-03-06T10:44:05.036Z,1.48
2023-03-06T10:46:40.015Z,1.40
2023-03-06T10:49:36.815Z,1.05
2023-03-06T10:52:08.993Z,0.75
2023-03-06T10:54:40.703Z,1.40
2023-03-06T10:57:31.833Z,1.10
2023-03-06T11:00:23.056Z,1.40
2023-03-06T11:03:13.339Z,1.00
2023-03-06T11:05:40.731Z,1.00
2023-03-06T11:08:22.537Z,1.20
2023-03-06T11:11:06.972Z,1.70
2023-03-06T11:13:38.360Z,1.63
2023-03-06T11:16:38.983Z,1.00
2023-03-06T11:19:28.004Z,0.88
2023-03-06T11:22:06.365Z,0.90
2023-03-06T11:24:44.204Z,1.48
2023-03-06T11:27:34.372Z,1.33
2023-03-06T11:30:23.762Z,1.80
2023-03-06T11:33:04.999Z,1.42
2023-03-06T11:35:50.377Z,1.20
2023-03-06T11:38:33.778Z,1.20
2023-03-06T11:41:13.836Z,0.95
2023-03-06T11:43:59.136Z,1.20
2023-03-06T11:46:45.430Z,1.63
2023-03-06T11:49:18.227Z,0.85
2023-03-06T11:51:55.954Z,0.80
2023-03-06T11:54:23.485Z,1.00
2023-03-06T11:57:04.243Z,0.90
2023-03-06T11:59:59.377Z,1.20
2023-03-06T12:05:37.982Z,1.00
2023-03-06T12:08:28.925Z,1.27
2023-03-06T12:16:33.228Z,1.00
2023-03-06T12:19:44.583Z,0.82
2023-03-06T12:22:25.726Z,2.20
2023-03-06T12:25:25.633Z,1.42
2023-03-06T12:28:00.250Z,1.60
2023-03-06T12:30:57.934Z,1.33
2023-03-06T12:33:27.778Z,1.40
2023-03-06T12:36:19.530Z,1.35
2023-03-06T12:39:29.964Z,2.20
2023-03-06T12:42:23.167Z,1.40
2023-03-06T12:45:01.406Z,1.40
2023-03-06T12:47:33.602Z,1.92
2023-03-06T12:50:13.493Z,1.60
2023-03-06T12:52:42.127Z,2.40
2023-03-06T12:55:17.453Z,1.88
2023-03-06T12:57:48.076Z,1.50
2023-03-06T13:00:36.259Z,1.77
2023-03-06T13:03:20.101Z,1.33
2023-03-06T13:06:01.005Z,2.60
2023-03-06T13:08:52.856Z,2.40
2023-03-06T13:12:26.277Z,1.77
2023-03-06T13:15:00.832Z,2.80
2023-03-06T13:17:38.304Z,1.90
2023-03-06T13:20:29.363Z,1.90
2023-03-06T13:22:56.664Z,2.13
2023-03-06T13:25:35.731Z,2.60
2023-03-06T13:28:04.743Z,3.33
2023-03-06T13:30:45.659Z,2.75
2023-03-06T13:33:27.626Z,2.58
2023-03-06T13:36:24.193Z,2.58
2023-03-06T13:38:51.711Z,5.18
2023-03-06T13:41:26.793Z,3.83
2023-03-06T13:43:57.432Z,3.90
2023-03-06T13:46:35.272Z,4.30
2023-03-06T13:49:08.012Z,5.55
2023-03-06T13:52:18.172Z,4.50
2023-03-06T13:55:37.985Z,6.82
2023-03-06T13:58:22.828Z,6.35
2023-03-06T14:04:04.940Z,9.38
2023-03-06T14:06:34.885Z,7.25
2023-03-06T14:09:13.745Z,7.03
2023-03-06T14:11:51.588Z,6.80
2023-03-06T14:14:31.913Z,7.75
2023-03-06T14:17:00.383Z,6.30
2023-03-06T14:19:36.294Z,6.72
2023-03-06T14:22:05.797Z,7.15
2023-03-06T14:24:50.726Z,6.68
2023-03-06T14:27:19.191Z,7.25
2023-03-06T14:29:48.655Z,5.82
2023-03-06T14:32:22.544Z,6.25
2023-03-06T14:34:49.633Z,5.38
2023-03-06T14:37:24.588Z,5.75
2023-03-06T14:39:52.383Z,5.80
2023-03-06T14:42:28.538Z,6.05
2023-03-06T14:45:18.913Z,6.20
2023-03-06T14:47:53.352Z,6.45
2023-03-06T14:53:19.020Z,9.73
2023-03-06T14:55:58.189Z,9.30
2023-03-06T14:58:36.467Z,5.07
2023-03-06T15:01:10.805Z,5.80
2023-03-06T15:03:56.900Z,5.38
2023-03-06T15:06:31.421Z,5.30
2023-03-06T15:09:07.968Z,4.75
2023-03-06T15:12:17.074Z,5.00
2023-03-06T15:14:57.571Z,4.75
2023-03-06T15:17:47.827Z,6.00
2023-03-06T15:20:53.362Z,5.35
2023-03-06T15:26:36.993Z,8.05
2023-03-06T15:29:10.619Z,7.57
2023-03-06T15:31:43.624Z,8.57
2023-03-06T15:34:10.548Z,8.23
2023-03-06T15:36:51.476Z,9.25
2023-03-06T15:39:34.651Z,8.07
2023-03-06T15:42:24.977Z,7.55
2023-03-06T15:45:05.440Z,9.45
2023-03-06T15:47:35.268Z,9.30
2023-03-06T15:50:02.190Z,7.90
2023-03-06T15:52:30.008Z,9.18
2023-03-06T15:54:56.965Z,8.18
2023-03-06T15:57:32.878Z,9.65
2023-03-06T16:00:02.539Z,8.60
2023-03-06T16:02:38.383Z,7.95
2023-03-06T16:05:16.267Z,9.80
2023-03-06T16:07:44.494Z,10.50
2023-03-06T16:10:21.788Z,11.63
2023-03-06T16:12:54.402Z,12.20
2023-03-06T16:15:28.885Z,12.15
2023-03-06T16:20:27.353Z,14.63
2023-03-06T16:22:56.664Z,14.15
2023-03-06T16:25:28.108Z,13.85
2023-03-06T16:27:58.248Z,12.73
2023-03-06T16:30:29.594Z,13.75
2023-03-06T16:32:58.054Z,15.30
2023-03-06T16:35:25.369Z,14.45
2023-03-06T16:37:52.363Z,15.88
2023-03-06T16:40:38.351Z,15.95
2023-03-06T16:43:05.529Z,17.20
2023-03-06T16:45:38.476Z,17.05
2023-03-06T16:48:06.977Z,17.60
2023-03-06T16:50:40.830Z,17.35
2023-03-06T16:53:08.281Z,18.75
2023-03-06T16:55:35.414Z,19.23
2023-03-06T16:58:02.550Z,18.40
2023-03-06T17:00:31.939Z,18.95
2023-03-06T17:03:01.120Z,19.98
2023-03-06T17:05:29.209Z,19.33
2023-03-06T17:07:56.513Z,20.30
2023-03-06T17:10:26.252Z,19.27
2023-03-06T17:12:55.539Z,19.15
2023-03-06T17:15:23.170Z,23.45
2023-03-06T17:17:51.616Z,55.63
2023-03-06T17:20:20.100Z,52.25
2023-03-06T17:22:47.185Z,61.30
2023-03-06T17:25:14.326Z,72.18
2023-03-06T17:27:41.303Z,67.07
2023-03-06T17:30:10.491Z,46.33
2023-03-06T17:32:40.858Z,64.55
2023-03-06T17:35:09.730Z,36.78
2023-03-06T17:37:38.955Z,31.85
2023-03-06T17:40:12.426Z,59.22
2023-03-06T17:42:39.367Z,36.60
2023-03-06T17:45:11.522Z,46.00
2023-03-06T17:47:38.434Z,37.28
2023-03-06T17:50:05.806Z,20.20
2023-03-06T17:52:33.357Z,31.60
2023-03-06T17:55:00.473Z,18.35
2023-03-06T17:57:27.418Z,18.77
2023-03-06T17:59:54.400Z,19.70
2023-03-06T18:02:21.449Z,22.38
2023-03-06T18:04:48.563Z,18.88
2023-03-06T18:07:15.648Z,24.75
2023-03-06T18:09:43.216Z,24.60
2023-03-06T18:12:10.468Z,21.85
2023-03-06T18:14:37.654Z,19.80
2023-03-06T18:17:04.662Z,19.63
2023-03-06T18:19:31.893Z,17.95
2023-03-06T18:21:59.072Z,18.90
2023-03-06T18:24:26.171Z,20.02
2023-03-06T18:26:53.286Z,19.45
2023-03-06T18:29:20.498Z,19.13
2023-03-06T18:31:49.965Z,20.52
2023-03-06T18:34:18.060Z,19.08
2023-03-06T18:36:47.273Z,20.15
2023-03-06T18:39:14.867Z,19.17
2023-03-06T18:41:41.965Z,19.70
2023-03-06T18:44:08.927Z,19.58
2023-03-06T18:46:38.184Z,19.58
2023-03-06T18:49:05.639Z,19.90
2023-03-06T18:51:33.232Z,23.73
2023-03-06T18:54:02.256Z,20.17
2023-03-06T18:56:29.725Z,19.23
2023-03-06T18:59:04.784Z,19.23
2023-03-06T19:01:32.619Z,18.48
2023-03-06T19:04:02.240Z,20.35
2023-03-06T19:06:29.918Z,20.02
2023-03-06T19:08:58.785Z,19.25
2023-03-06T19:11:27.295Z,19.85
2023-03-06T19:13:54.748Z,19.67
2023-03-06T19:16:26.324Z,19.50
2023-03-06T19:18:55.649Z,25.80
2023-03-06T19:21:25.838Z,21.60
2023-03-06T19:23:53.212Z,19.92
2023-03-06T19:26:20.881Z,19.15
2023-03-06T19:28:48.918Z,20.27
2023-03-06T19:31:25.037Z,20.70
2023-03-06T19:33:53.868Z,22.40
2023-03-06T19:36:26.586Z,21.00
2023-03-06T19:38:59.162Z,18.33
2023-03-06T19:41:27.717Z,20.73
2023-03-06T19:43:58.869Z,18.02
2023-03-06T19:46:27.083Z,19.40
2023-03-06T19:49:05.631Z,17.02
2023-03-06T19:51:32.595Z,25.85
2023-03-06T19:53:59.591Z,16.58
2023-03-06T19:56:29.031Z,23.35
2023-03-06T19:58:56.882Z,17.90
2023-03-06T20:01:27.409Z,37.47
2023-03-06T20:03:59.637Z,18.83
2023-03-06T20:06:31.385Z,15.38
2023-03-06T20:08:58.572Z,15.18
2023-03-06T20:11:29.976Z,17.33
2023-03-06T20:14:03.147Z,18.05
2023-03-06T20:16:31.913Z,19.10
2023-03-06T20:19:01.262Z,15.20
2023-03-06T20:21:31.747Z,21.58
2023-03-06T20:23:59.409Z,16.15
2023-03-06T20:26:28.543Z,20.35
2023-03-06T20:28:57.206Z,18.60
2023-03-06T20:31:28.106Z,18.63
2023-03-06T20:33:58.609Z,20.10
2023-03-06T20:36:32.933Z,17.30
2023-03-06T20:39:01.428Z,25.60
2023-03-06T20:41:30.597Z,33.08
2023-03-06T20:44:00.527Z,27.50
2023-03-06T20:46:28.257Z,17.45
2023-03-06T20:48:56.052Z,22.10
2023-03-06T20:51:30.146Z,26.73
2023-03-06T20:53:59.129Z,26.35
2023-03-06T20:56:31.219Z,19.90
2023-03-06T20:58:58.774Z,16.20
2023-03-06T21:01:32.720Z,16.90
2023-03-06T21:04:01.482Z,17.27
2023-03-06T21:06:29.361Z,17.33
2023-03-06T21:08:58.325Z,19.27
2023-03-06T21:11:26.186Z,16.90
2023-03-06T21:13:54.124Z,16.50
2023-03-06T21:16:24.642Z,19.25
2023-03-06T21:18:55.007Z,17.55
2023-03-06T21:21:29.582Z,18.65
2023-03-06T21:23:57.614Z,18.20
2023-03-06T21:26:28.555Z,18.30
2023-03-06T21:28:58.977Z,19.10
2023-03-06T21:31:28.216Z,19.35
2023-03-06T21:33:56.883Z,20.02
2023-03-06T21:36:24.366Z,20.42
2023-03-06T21:38:53.479Z,17.95
2023-03-06T21:41:30.330Z,16.10
2023-03-06T21:44:01.506Z,17.30
2023-03-06T21:46:28.999Z,24.40
2023-03-06T21:49:00.163Z,24.58
2023-03-06T21:51:27.408Z,21.10
2023-03-06T21:53:55.467Z,20.88
2023-03-06T21:56:25.701Z,23.48
2023-03-06T21:58:53.001Z,20.70
2023-03-06T22:01:24.875Z,28.15
2023-03-06T22:03:52.459Z,18.92
2023-03-06T22:06:26.684Z,17.48
2023-03-06T22:08:56.466Z,18.05
2023-03-06T22:11:25.383Z,18.55
2023-03-06T22:13:55.724Z,17.52
2023-03-06T22:16:22.877Z,18.27
2023-03-06T22:18:51.899Z,18.80
2023-03-06T22:21:21.801Z,18.45
2023-03-06T22:23:57.379Z,18.17
2023-03-06T22:26:29.442Z,15.73
2023-03-06T22:28:57.418Z,16.73
2023-03-06T22:31:28.444Z,16.33
2023-03-06T22:33:59.036Z,15.40
2023-03-06T22:36:28.487Z,14.95
2023-03-06T22:38:58.588Z,14.70
2023-03-06T22:41:26.858Z,15.32
2023-03-06T22:43:59.511Z,13.68
2023-03-06T22:46:27.613Z,13.77
2023-03-06T22:49:00.324Z,14.18
2023-03-06T22:51:29.557Z,14.63
2023-03-06T22:53:56.726Z,14.27
2023-03-06T22:56:24.006Z,14.27
2023-03-06T22:58:51.387Z,13.90
2023-03-06T23:01:22.614Z,13.98
2023-03-06T23:03:52.927Z,12.55
2023-03-06T23:06:46.972Z,12.20
2023-03-06T23:09:22.700Z,12.57
2023-03-06T23:12:09.191Z,12.02
2023-03-06T23:14:54.606Z,11.48
2023-03-06T23:17:40.104Z,11.10
2023-03-06T23:20:25.711Z,11.50
2023-03-06T23:23:11.984Z,10.38
2023-03-06T23:25:42.441Z,10.52
2023-03-06T23:28:09.546Z,10.40
2023-03-06T23:30:39.192Z,10.32
2023-03-06T23:33:06.521Z,10.38
2023-03-06T23:35:35.911Z,9.90
2023-03-06T23:38:02.889Z,10.35
2023-03-06T23:40:33.100Z,10.05
2023-03-06T23:43:00.483Z,9.60
2023-03-06T23:45:27.517Z,9.70
2023-03-06T23:47:54.547Z,9.43
2023-03-06T23:50:23.090Z,10.00
2023-03-06T23:52:55.005Z,9.35
2023-03-06T23:55:22.016Z,9.75
2023-03-06T23:57:48.987Z,8.73
